sensor_id;sensor_type;location;lat;lon;timestamp;P1;durP1;ratioP1;P2;durP2;ratioP2
8183;SDS011;4133;48.752;9.088;2023-10-09T00:01:48;3.00;;;1.80;;
8183;SDS011;4133;48.752;9.088;2023-10-09T00:04:14;2.63;;;1.90;;
8183;SDS011;4133;48.752;9.088;2023-10-09T00:06:45;2.17;;;1.63;;
8183;SDS011;4133;48.752;9.088;2023-10-09T00:09:11;2.17;;;1.37;;
8183;SDS011;4133;48.752;9.088;2023-10-09T00:11:50;3.70;;;1.90;;
8183;SDS011;4133;48.752;9.088;2023-10-09T00:14:24;2.63;;;1.70;;
8183;SDS011;4133;48.752;9.088;2023-10-09T00:16:51;7.80;;;1.90;;
8183;SDS011;4133;48.752;9.088;2023-10-09T00:19:50;3.73;;;1.90;;
8183;SDS011;4133;48.752;9.088;2023-10-09T00:22:17;3.03;;;1.70;;
8183;SDS011;4133;48.752;9.088;2023-10-09T00:24:53;2.70;;;1.83;;
8183;SDS011;4133;48.752;9.088;2023-10-09T00:27:36;7.77;;;1.80;;
8183;SDS011;4133;48.752;9.088;2023-10-09T00:30:02;3.60;;;2.00;;
8183;SDS011;4133;48.752;9.088;2023-10-09T00:32:31;2.63;;;1.67;;
8183;SDS011;4133;48.752;9.088;2023-10-09T00:35:02;2.70;;;2.00;;
8183;SDS011;4133;48.752;9.088;2023-10-09T00:37:48;1.70;;;1.60;;
8183;SDS011;4133;48.752;9.088;2023-10-09T00:40:16;2.83;;;1.80;;
8183;SDS011;4133;48.752;9.088;2023-10-09T00:42:47;4.60;;;1.60;;
8183;SDS011;4133;48.752;9.088;2023-10-09T00:45:14;2.20;;;1.80;;
8183;SDS011;4133;48.752;9.088;2023-10-09T00:47:52;2.63;;;2.00;;
8183;SDS011;4133;48.752;9.088;2023-10-09T00:50:21;3.80;;;2.10;;
8183;SDS011;4133;48.752;9.088;2023-10-09T00:52:57;3.57;;;1.60;;
8183;SDS011;4133;48.752;9.088;2023-10-09T00:55:28;2.33;;;1.70;;
8183;SDS011;4133;48.752;9.088;2023-10-09T00:58:23;2.30;;;1.30;;
8183;SDS011;4133;48.752;9.088;2023-10-09T01:00:51;2.47;;;1.50;;
8183;SDS011;4133;48.752;9.088;2023-10-09T01:03:18;4.60;;;1.47;;
8183;SDS011;4133;48.752;9.088;2023-10-09T01:05:50;2.20;;;1.57;;
8183;SDS011;4133;48.752;9.088;2023-10-09T01:08:23;4.73;;;1.90;;
8183;SDS011;4133;48.752;9.088;2023-10-09T01:10:58;3.00;;;1.63;;
8183;SDS011;4133;48.752;9.088;2023-10-09T01:13:34;1.97;;;1.60;;
8183;SDS011;4133;48.752;9.088;2023-10-09T01:16:06;3.70;;;1.77;;
8183;SDS011;4133;48.752;9.088;2023-10-09T01:18:41;1.80;;;1.50;;
8183;SDS011;4133;48.752;9.088;2023-10-09T01:21:08;3.43;;;1.57;;
8183;SDS011;4133;48.752;9.088;2023-10-09T01:23:38;3.53;;;1.47;;
8183;SDS011;4133;48.752;9.088;2023-10-09T01:26:08;4.67;;;2.10;;
8183;SDS011;4133;48.752;9.088;2023-10-09T01:28:34;1.73;;;1.40;;
8183;SDS011;4133;48.752;9.088;2023-10-09T01:31:00;3.27;;;1.73;;
8183;SDS011;4133;48.752;9.088;2023-10-09T01:33:26;1.80;;;1.37;;
8183;SDS011;4133;48.752;9.088;2023-10-09T01:35:53;4.27;;;2.07;;
8183;SDS011;4133;48.752;9.088;2023-10-09T01:38:25;7.10;;;2.10;;
8183;SDS011;4133;48.752;9.088;2023-10-09T01:41:06;4.60;;;2.03;;
8183;SDS011;4133;48.752;9.088;2023-10-09T01:43:32;4.10;;;1.97;;
8183;SDS011;4133;48.752;9.088;2023-10-09T01:45:59;3.27;;;1.87;;
8183;SDS011;4133;48.752;9.088;2023-10-09T01:48:26;4.80;;;2.23;;
8183;SDS011;4133;48.752;9.088;2023-10-09T01:50:53;2.20;;;1.90;;
8183;SDS011;4133;48.752;9.088;2023-10-09T01:53:19;4.00;;;1.67;;
8183;SDS011;4133;48.752;9.088;2023-10-09T01:55:48;4.77;;;2.17;;
8183;SDS011;4133;48.752;9.088;2023-10-09T01:58:14;3.63;;;1.97;;
8183;SDS011;4133;48.752;9.088;2023-10-09T02:00:46;4.30;;;1.40;;
8183;SDS011;4133;48.752;9.088;2023-10-09T02:03:22;10.37;;;2.13;;
8183;SDS011;4133;48.752;9.088;2023-10-09T02:05:51;2.80;;;1.80;;
8183;SDS011;4133;48.752;9.088;2023-10-09T02:08:28;7.47;;;2.23;;
8183;SDS011;4133;48.752;9.088;2023-10-09T02:11:01;2.70;;;1.80;;
8183;SDS011;4133;48.752;9.088;2023-10-09T02:13:27;2.13;;;1.53;;
8183;SDS011;4133;48.752;9.088;2023-10-09T02:15:59;3.93;;;1.50;;
8183;SDS011;4133;48.752;9.088;2023-10-09T02:18:51;2.53;;;1.90;;
8183;SDS011;4133;48.752;9.088;2023-10-09T02:21:24;4.50;;;1.50;;
8183;SDS011;4133;48.752;9.088;2023-10-09T02:24:05;4.43;;;1.87;;
8183;SDS011;4133;48.752;9.088;2023-10-09T02:26:34;2.00;;;1.40;;
8183;SDS011;4133;48.752;9.088;2023-10-09T02:29:03;2.37;;;1.50;;
8183;SDS011;4133;48.752;9.088;2023-10-09T02:31:38;1.53;;;1.43;;
8183;SDS011;4133;48.752;9.088;2023-10-09T02:34:16;3.47;;;1.47;;
8183;SDS011;4133;48.752;9.088;2023-10-09T02:36:46;1.70;;;1.37;;
8183;SDS011;4133;48.752;9.088;2023-10-09T02:39:23;3.03;;;1.80;;
8183;SDS011;4133;48.752;9.088;2023-10-09T02:41:51;2.83;;;2.10;;
8183;SDS011;4133;48.752;9.088;2023-10-09T02:44:25;3.50;;;1.70;;
8183;SDS011;4133;48.752;9.088;2023-10-09T02:46:51;3.73;;;1.87;;
8183;SDS011;4133;48.752;9.088;2023-10-09T02:49:23;3.13;;;1.90;;
8183;SDS011;4133;48.752;9.088;2023-10-09T02:51:49;3.47;;;2.10;;
8183;SDS011;4133;48.752;9.088;2023-10-09T02:54:18;3.57;;;1.97;;
8183;SDS011;4133;48.752;9.088;2023-10-09T02:56:47;2.90;;;1.73;;
8183;SDS011;4133;48.752;9.088;2023-10-09T02:59:33;7.37;;;1.87;;
8183;SDS011;4133;48.752;9.088;2023-10-09T03:02:02;4.97;;;2.20;;
8183;SDS011;4133;48.752;9.088;2023-10-09T03:04:28;5.27;;;1.63;;
8183;SDS011;4133;48.752;9.088;2023-10-09T03:06:57;4.07;;;1.73;;
8183;SDS011;4133;48.752;9.088;2023-10-09T03:09:24;4.13;;;1.97;;
8183;SDS011;4133;48.752;9.088;2023-10-09T03:11:54;3.83;;;2.00;;
8183;SDS011;4133;48.752;9.088;2023-10-09T03:14:25;2.10;;;1.50;;
8183;SDS011;4133;48.752;9.088;2023-10-09T03:16:54;5.73;;;1.90;;
8183;SDS011;4133;48.752;9.088;2023-10-09T03:19:25;9.03;;;2.20;;
8183;SDS011;4133;48.752;9.088;2023-10-09T03:21:51;6.80;;;2.33;;
8183;SDS011;4133;48.752;9.088;2023-10-09T03:24:17;3.60;;;1.80;;
8183;SDS011;4133;48.752;9.088;2023-10-09T03:26:45;6.53;;;2.17;;
8183;SDS011;4133;48.752;9.088;2023-10-09T03:29:11;5.07;;;2.20;;
8183;SDS011;4133;48.752;9.088;2023-10-09T03:31:37;2.90;;;2.00;;
8183;SDS011;4133;48.752;9.088;2023-10-09T03:34:03;4.27;;;2.23;;
8183;SDS011;4133;48.752;9.088;2023-10-09T03:36:29;2.53;;;1.50;;
8183;SDS011;4133;48.752;9.088;2023-10-09T03:38:59;5.20;;;1.83;;
8183;SDS011;4133;48.752;9.088;2023-10-09T03:41:25;2.80;;;1.77;;
8183;SDS011;4133;48.752;9.088;2023-10-09T03:43:54;3.93;;;1.87;;
8183;SDS011;4133;48.752;9.088;2023-10-09T03:46:21;3.23;;;1.73;;
8183;SDS011;4133;48.752;9.088;2023-10-09T03:48:51;2.93;;;1.17;;
8183;SDS011;4133;48.752;9.088;2023-10-09T03:51:22;3.03;;;1.63;;
8183;SDS011;4133;48.752;9.088;2023-10-09T03:53:48;1.20;;;1.10;;
8183;SDS011;4133;48.752;9.088;2023-10-09T03:56:14;2.87;;;1.90;;
8183;SDS011;4133;48.752;9.088;2023-10-09T03:58:45;2.33;;;1.80;;
8183;SDS011;4133;48.752;9.088;2023-10-09T04:01:11;3.13;;;1.93;;
8183;SDS011;4133;48.752;9.088;2023-10-09T04:03:53;3.77;;;1.70;;
8183;SDS011;4133;48.752;9.088;2023-10-09T04:06:20;6.00;;;1.70;;
8183;SDS011;4133;48.752;9.088;2023-10-09T04:08:47;3.40;;;1.73;;
8183;SDS011;4133;48.752;9.088;2023-10-09T04:11:15;4.00;;;1.77;;
8183;SDS011;4133;48.752;9.088;2023-10-09T04:13:42;5.37;;;2.00;;
8183;SDS011;4133;48.752;9.088;2023-10-09T04:16:11;3.87;;;1.77;;
8183;SDS011;4133;48.752;9.088;2023-10-09T04:19:02;3.30;;;2.10;;
8183;SDS011;4133;48.752;9.088;2023-10-09T04:21:36;4.27;;;1.77;;
8183;SDS011;4133;48.752;9.088;2023-10-09T04:24:06;4.83;;;1.83;;
8183;SDS011;4133;48.752;9.088;2023-10-09T04:26:38;3.90;;;1.80;;
8183;SDS011;4133;48.752;9.088;2023-10-09T04:29:09;2.47;;;1.63;;
8183;SDS011;4133;48.752;9.088;2023-10-09T04:31:43;4.50;;;1.73;;
8183;SDS011;4133;48.752;9.088;2023-10-09T04:34:09;4.33;;;1.70;;
8183;SDS011;4133;48.752;9.088;2023-10-09T04:36:49;3.37;;;1.87;;
8183;SDS011;4133;48.752;9.088;2023-10-09T04:39:16;2.83;;;1.90;;
8183;SDS011;4133;48.752;9.088;2023-10-09T04:41:54;2.93;;;1.70;;
8183;SDS011;4133;48.752;9.088;2023-10-09T04:44:39;5.03;;;1.77;;
8183;SDS011;4133;48.752;9.088;2023-10-09T04:47:16;2.90;;;1.70;;
8183;SDS011;4133;48.752;9.088;2023-10-09T04:49:42;5.93;;;2.10;;
8183;SDS011;4133;48.752;9.088;2023-10-09T04:52:15;4.60;;;1.97;;
8183;SDS011;4133;48.752;9.088;2023-10-09T04:55:04;3.53;;;2.20;;
8183;SDS011;4133;48.752;9.088;2023-10-09T04:57:37;4.30;;;2.30;;
8183;SDS011;4133;48.752;9.088;2023-10-09T05:00:11;4.23;;;1.83;;
8183;SDS011;4133;48.752;9.088;2023-10-09T05:02:50;6.33;;;1.77;;
8183;SDS011;4133;48.752;9.088;2023-10-09T05:05:20;3.03;;;1.80;;
8183;SDS011;4133;48.752;9.088;2023-10-09T05:08:13;5.10;;;1.93;;
8183;SDS011;4133;48.752;9.088;2023-10-09T05:10:50;4.13;;;1.80;;
8183;SDS011;4133;48.752;9.088;2023-10-09T05:13:22;2.70;;;1.80;;
8183;SDS011;4133;48.752;9.088;2023-10-09T05:16:04;3.90;;;1.93;;
8183;SDS011;4133;48.752;9.088;2023-10-09T05:18:32;4.70;;;2.03;;
8183;SDS011;4133;48.752;9.088;2023-10-09T05:21:05;3.23;;;1.80;;
8183;SDS011;4133;48.752;9.088;2023-10-09T05:23:37;2.70;;;1.63;;
8183;SDS011;4133;48.752;9.088;2023-10-09T05:26:14;2.43;;;1.53;;
8183;SDS011;4133;48.752;9.088;2023-10-09T05:28:59;4.13;;;1.90;;
8183;SDS011;4133;48.752;9.088;2023-10-09T05:31:24;4.87;;;1.67;;
8183;SDS011;4133;48.752;9.088;2023-10-09T05:34:09;4.67;;;2.00;;
8183;SDS011;4133;48.752;9.088;2023-10-09T05:36:37;3.80;;;1.57;;
8183;SDS011;4133;48.752;9.088;2023-10-09T05:39:03;5.03;;;2.00;;
8183;SDS011;4133;48.752;9.088;2023-10-09T05:41:55;2.10;;;1.57;;
8183;SDS011;4133;48.752;9.088;2023-10-09T05:44:34;4.63;;;1.67;;
8183;SDS011;4133;48.752;9.088;2023-10-09T05:47:19;1.67;;;1.40;;
8183;SDS011;4133;48.752;9.088;2023-10-09T05:49:56;2.70;;;1.90;;
8183;SDS011;4133;48.752;9.088;2023-10-09T05:52:38;3.90;;;1.97;;
8183;SDS011;4133;48.752;9.088;2023-10-09T05:55:04;4.27;;;1.53;;
8183;SDS011;4133;48.752;9.088;2023-10-09T05:57:46;4.57;;;2.13;;
8183;SDS011;4133;48.752;9.088;2023-10-09T06:00:30;3.63;;;1.87;;
8183;SDS011;4133;48.752;9.088;2023-10-09T06:03:15;7.43;;;2.17;;
8183;SDS011;4133;48.752;9.088;2023-10-09T06:05:47;4.50;;;2.00;;
8183;SDS011;4133;48.752;9.088;2023-10-09T06:08:27;4.33;;;1.70;;
8183;SDS011;4133;48.752;9.088;2023-10-09T06:11:13;5.57;;;3.13;;
8183;SDS011;4133;48.752;9.088;2023-10-09T06:13:59;6.73;;;2.93;;
8183;SDS011;4133;48.752;9.088;2023-10-09T06:16:37;4.27;;;2.77;;
8183;SDS011;4133;48.752;9.088;2023-10-09T06:19:04;4.07;;;1.80;;
8183;SDS011;4133;48.752;9.088;2023-10-09T06:21:34;6.73;;;2.33;;
8183;SDS011;4133;48.752;9.088;2023-10-09T06:24:21;4.97;;;2.00;;
8183;SDS011;4133;48.752;9.088;2023-10-09T06:27:08;4.00;;;2.43;;
8183;SDS011;4133;48.752;9.088;2023-10-09T06:29:41;2.67;;;1.90;;
8183;SDS011;4133;48.752;9.088;2023-10-09T06:32:11;8.47;;;2.20;;
8183;SDS011;4133;48.752;9.088;2023-10-09T06:35:01;3.87;;;1.67;;
8183;SDS011;4133;48.752;9.088;2023-10-09T06:37:45;2.97;;;2.03;;
8183;SDS011;4133;48.752;9.088;2023-10-09T06:40:27;2.93;;;1.77;;
8183;SDS011;4133;48.752;9.088;2023-10-09T06:43:04;4.30;;;1.80;;
8183;SDS011;4133;48.752;9.088;2023-10-09T06:45:37;3.80;;;1.93;;
8183;SDS011;4133;48.752;9.088;2023-10-09T06:48:10;8.07;;;2.50;;
8183;SDS011;4133;48.752;9.088;2023-10-09T06:50:55;4.90;;;1.93;;
8183;SDS011;4133;48.752;9.088;2023-10-09T06:53:23;2.47;;;1.80;;
8183;SDS011;4133;48.752;9.088;2023-10-09T06:56:14;4.67;;;1.97;;
8183;SDS011;4133;48.752;9.088;2023-10-09T06:59:09;5.67;;;1.67;;
8183;SDS011;4133;48.752;9.088;2023-10-09T07:01:46;6.37;;;2.03;;
8183;SDS011;4133;48.752;9.088;2023-10-09T07:04:33;5.13;;;2.50;;
8183;SDS011;4133;48.752;9.088;2023-10-09T07:07:01;2.60;;;1.67;;
8183;SDS011;4133;48.752;9.088;2023-10-09T07:09:32;2.27;;;1.70;;
8183;SDS011;4133;48.752;9.088;2023-10-09T07:12:08;3.60;;;1.83;;
8183;SDS011;4133;48.752;9.088;2023-10-09T07:14:52;3.40;;;1.53;;
8183;SDS011;4133;48.752;9.088;2023-10-09T07:17:21;2.77;;;1.80;;
8183;SDS011;4133;48.752;9.088;2023-10-09T07:19:48;2.20;;;1.40;;
8183;SDS011;4133;48.752;9.088;2023-10-09T07:22:15;5.77;;;2.20;;
8183;SDS011;4133;48.752;9.088;2023-10-09T07:24:54;6.17;;;2.27;;
8183;SDS011;4133;48.752;9.088;2023-10-09T07:27:38;4.17;;;2.17;;
8183;SDS011;4133;48.752;9.088;2023-10-09T07:30:22;5.30;;;1.90;;
8183;SDS011;4133;48.752;9.088;2023-10-09T07:35:23;2.80;;;1.67;;
8183;SDS011;4133;48.752;9.088;2023-10-09T07:38:19;4.00;;;2.10;;
8183;SDS011;4133;48.752;9.088;2023-10-09T07:40:45;2.50;;;1.87;;
8183;SDS011;4133;48.752;9.088;2023-10-09T07:43:25;4.00;;;2.03;;
8183;SDS011;4133;48.752;9.088;2023-10-09T07:45:54;3.80;;;2.00;;
8183;SDS011;4133;48.752;9.088;2023-10-09T07:48:40;7.27;;;1.90;;
8183;SDS011;4133;48.752;9.088;2023-10-09T07:51:18;4.57;;;1.93;;
8183;SDS011;4133;48.752;9.088;2023-10-09T07:53:48;4.63;;;1.77;;
8183;SDS011;4133;48.752;9.088;2023-10-09T07:56:17;2.67;;;1.50;;
8183;SDS011;4133;48.752;9.088;2023-10-09T07:58:49;2.53;;;1.57;;
8183;SDS011;4133;48.752;9.088;2023-10-09T08:01:15;4.30;;;2.45;;
8183;SDS011;4133;48.752;9.088;2023-10-09T08:03:48;3.53;;;2.33;;
8183;SDS011;4133;48.752;9.088;2023-10-09T08:06:23;3.28;;;1.90;;
8183;SDS011;4133;48.752;9.088;2023-10-09T08:09:05;4.37;;;1.90;;
8183;SDS011;4133;48.752;9.088;2023-10-09T08:11:40;2.90;;;1.80;;
8183;SDS011;4133;48.752;9.088;2023-10-09T08:14:06;4.03;;;2.03;;
8183;SDS011;4133;48.752;9.088;2023-10-09T08:16:47;2.70;;;1.63;;
8183;SDS011;4133;48.752;9.088;2023-10-09T08:19:13;3.70;;;1.67;;
8183;SDS011;4133;48.752;9.088;2023-10-09T08:22:05;3.27;;;1.67;;
8183;SDS011;4133;48.752;9.088;2023-10-09T08:24:50;3.15;;;1.67;;
8183;SDS011;4133;48.752;9.088;2023-10-09T08:27:26;2.90;;;1.80;;
8183;SDS011;4133;48.752;9.088;2023-10-09T08:29:55;4.97;;;2.08;;
8183;SDS011;4133;48.752;9.088;2023-10-09T08:32:40;8.18;;;2.30;;
8183;SDS011;4133;48.752;9.088;2023-10-09T08:35:08;4.07;;;2.10;;
8183;SDS011;4133;48.752;9.088;2023-10-09T08:37:54;5.73;;;2.03;;
8183;SDS011;4133;48.752;9.088;2023-10-09T08:40:32;7.20;;;2.03;;
8183;SDS011;4133;48.752;9.088;2023-10-09T08:43:13;4.30;;;2.03;;
8183;SDS011;4133;48.752;9.088;2023-10-09T08:45:40;4.63;;;2.10;;
8183;SDS011;4133;48.752;9.088;2023-10-09T08:48:07;3.90;;;2.13;;
8183;SDS011;4133;48.752;9.088;2023-10-09T08:50:33;7.50;;;1.80;;
8183;SDS011;4133;48.752;9.088;2023-10-09T08:53:00;4.90;;;2.22;;
8183;SDS011;4133;48.752;9.088;2023-10-09T08:55:28;2.65;;;2.10;;
8183;SDS011;4133;48.752;9.088;2023-10-09T08:57:54;3.25;;;1.80;;
8183;SDS011;4133;48.752;9.088;2023-10-09T09:00:22;3.88;;;2.15;;
8183;SDS011;4133;48.752;9.088;2023-10-09T09:02:55;3.78;;;1.73;;
8183;SDS011;4133;48.752;9.088;2023-10-09T09:05:21;5.00;;;2.05;;
8183;SDS011;4133;48.752;9.088;2023-10-09T09:07:47;2.85;;;1.50;;
8183;SDS011;4133;48.752;9.088;2023-10-09T09:10:13;3.33;;;1.92;;
8183;SDS011;4133;48.752;9.088;2023-10-09T09:12:46;4.35;;;1.95;;
8183;SDS011;4133;48.752;9.088;2023-10-09T09:15:15;4.13;;;1.80;;
8183;SDS011;4133;48.752;9.088;2023-10-09T09:17:46;9.45;;;2.30;;
8183;SDS011;4133;48.752;9.088;2023-10-09T09:22:53;8.00;;;1.67;;
8183;SDS011;4133;48.752;9.088;2023-10-09T09:25:23;3.97;;;1.83;;
8183;SDS011;4133;48.752;9.088;2023-10-09T09:27:49;4.80;;;1.75;;
8183;SDS011;4133;48.752;9.088;2023-10-09T09:32:51;2.97;;;1.75;;
8183;SDS011;4133;48.752;9.088;2023-10-09T09:35:37;4.80;;;2.13;;
8183;SDS011;4133;48.752;9.088;2023-10-09T09:38:04;3.42;;;1.85;;
8183;SDS011;4133;48.752;9.088;2023-10-09T09:40:31;6.70;;;2.08;;
8183;SDS011;4133;48.752;9.088;2023-10-09T09:43:06;4.90;;;1.98;;
8183;SDS011;4133;48.752;9.088;2023-10-09T09:45:38;10.63;;;2.67;;
8183;SDS011;4133;48.752;9.088;2023-10-09T09:48:11;6.78;;;2.53;;
8183;SDS011;4133;48.752;9.088;2023-10-09T09:50:40;5.85;;;2.10;;
8183;SDS011;4133;48.752;9.088;2023-10-09T09:53:10;3.92;;;1.90;;
8183;SDS011;4133;48.752;9.088;2023-10-09T09:55:37;5.38;;;2.35;;
8183;SDS011;4133;48.752;9.088;2023-10-09T09:58:06;7.40;;;2.45;;
8183;SDS011;4133;48.752;9.088;2023-10-09T10:00:43;7.05;;;2.13;;
8183;SDS011;4133;48.752;9.088;2023-10-09T10:03:18;4.57;;;2.10;;
8183;SDS011;4133;48.752;9.088;2023-10-09T10:05:45;3.97;;;1.58;;
8183;SDS011;4133;48.752;9.088;2023-10-09T10:08:17;6.82;;;1.90;;
8183;SDS011;4133;48.752;9.088;2023-10-09T10:10:44;8.93;;;1.85;;
8183;SDS011;4133;48.752;9.088;2023-10-09T10:16:10;8.93;;;2.53;;
8183;SDS011;4133;48.752;9.088;2023-10-09T10:18:58;7.45;;;2.25;;
8183;SDS011;4133;48.752;9.088;2023-10-09T10:21:28;5.10;;;1.75;;
8183;SDS011;4133;48.752;9.088;2023-10-09T10:27:14;2.50;;;1.63;;
8183;SDS011;4133;48.752;9.088;2023-10-09T10:35:21;5.43;;;2.13;;
8183;SDS011;4133;48.752;9.088;2023-10-09T10:40:50;4.88;;;2.28;;
8183;SDS011;4133;48.752;9.088;2023-10-09T10:43:22;7.78;;;1.75;;
8183;SDS011;4133;48.752;9.088;2023-10-09T10:46:05;5.72;;;1.63;;
8183;SDS011;4133;48.752;9.088;2023-10-09T10:48:39;4.50;;;1.92;;
8183;SDS011;4133;48.752;9.088;2023-10-09T10:51:11;4.05;;;1.65;;
8183;SDS011;4133;48.752;9.088;2023-10-09T10:53:52;5.07;;;1.58;;
8183;SDS011;4133;48.752;9.088;2023-10-09T10:56:22;5.38;;;1.70;;
8183;SDS011;4133;48.752;9.088;2023-10-09T10:58:59;3.65;;;1.60;;
8183;SDS011;4133;48.752;9.088;2023-10-09T11:01:32;5.40;;;2.03;;
8183;SDS011;4133;48.752;9.088;2023-10-09T11:04:16;6.50;;;1.30;;
8183;SDS011;4133;48.752;9.088;2023-10-09T11:06:55;7.07;;;1.55;;
8183;SDS011;4133;48.752;9.088;2023-10-09T11:09:50;4.75;;;1.80;;
8183;SDS011;4133;48.752;9.088;2023-10-09T11:12:46;3.35;;;1.90;;
8183;SDS011;4133;48.752;9.088;2023-10-09T11:15:29;3.40;;;1.70;;
8183;SDS011;4133;48.752;9.088;2023-10-09T11:18:03;6.45;;;1.90;;
8183;SDS011;4133;48.752;9.088;2023-10-09T11:20:35;6.18;;;2.03;;
8183;SDS011;4133;48.752;9.088;2023-10-09T11:23:18;5.60;;;1.88;;
8183;SDS011;4133;48.752;9.088;2023-10-09T11:25:54;5.13;;;2.03;;
8183;SDS011;4133;48.752;9.088;2023-10-09T11:28:32;4.63;;;2.00;;
8183;SDS011;4133;48.752;9.088;2023-10-09T11:31:13;5.45;;;1.83;;
8183;SDS011;4133;48.752;9.088;2023-10-09T11:36:08;4.28;;;1.75;;
8183;SDS011;4133;48.752;9.088;2023-10-09T11:38:35;2.80;;;1.90;;
8183;SDS011;4133;48.752;9.088;2023-10-09T11:41:11;3.05;;;1.50;;
8183;SDS011;4133;48.752;9.088;2023-10-09T11:43:47;4.68;;;1.98;;
8183;SDS011;4133;48.752;9.088;2023-10-09T11:46:22;3.83;;;1.90;;
8183;SDS011;4133;48.752;9.088;2023-10-09T11:49:13;4.63;;;1.85;;
8183;SDS011;4133;48.752;9.088;2023-10-09T11:51:45;4.28;;;2.22;;
8183;SDS011;4133;48.752;9.088;2023-10-09T11:54:30;2.88;;;1.98;;
8183;SDS011;4133;48.752;9.088;2023-10-09T11:56:56;3.58;;;2.10;;
8183;SDS011;4133;48.752;9.088;2023-10-09T11:59:26;2.92;;;1.73;;
8183;SDS011;4133;48.752;9.088;2023-10-09T12:01:52;3.38;;;1.88;;
8183;SDS011;4133;48.752;9.088;2023-10-09T12:04:19;4.43;;;2.30;;
8183;SDS011;4133;48.752;9.088;2023-10-09T12:06:55;4.95;;;2.03;;
8183;SDS011;4133;48.752;9.088;2023-10-09T12:09:31;3.97;;;2.08;;
8183;SDS011;4133;48.752;9.088;2023-10-09T12:11:59;5.63;;;2.50;;
8183;SDS011;4133;48.752;9.088;2023-10-09T12:14:25;6.30;;;2.40;;
8183;SDS011;4133;48.752;9.088;2023-10-09T12:16:58;5.32;;;2.33;;
8183;SDS011;4133;48.752;9.088;2023-10-09T12:19:24;3.03;;;2.40;;
8183;SDS011;4133;48.752;9.088;2023-10-09T12:21:52;3.78;;;2.40;;
8183;SDS011;4133;48.752;9.088;2023-10-09T12:24:19;3.90;;;2.03;;
8183;SDS011;4133;48.752;9.088;2023-10-09T12:26:45;3.95;;;2.40;;
8183;SDS011;4133;48.752;9.088;2023-10-09T12:29:13;5.05;;;2.50;;
8183;SDS011;4133;48.752;9.088;2023-10-09T12:31:39;4.00;;;2.45;;
8183;SDS011;4133;48.752;9.088;2023-10-09T12:34:05;5.30;;;2.33;;
8183;SDS011;4133;48.752;9.088;2023-10-09T12:36:31;4.25;;;2.70;;
8183;SDS011;4133;48.752;9.088;2023-10-09T12:39:02;3.53;;;2.40;;
8183;SDS011;4133;48.752;9.088;2023-10-09T12:41:28;3.50;;;2.28;;
8183;SDS011;4133;48.752;9.088;2023-10-09T12:43:58;2.83;;;2.00;;
8183;SDS011;4133;48.752;9.088;2023-10-09T12:46:24;5.53;;;2.45;;
8183;SDS011;4133;48.752;9.088;2023-10-09T12:48:57;3.72;;;2.22;;
8183;SDS011;4133;48.752;9.088;2023-10-09T12:51:23;5.15;;;2.40;;
8183;SDS011;4133;48.752;9.088;2023-10-09T12:53:54;3.10;;;2.30;;
8183;SDS011;4133;48.752;9.088;2023-10-09T12:56:23;4.03;;;2.38;;
8183;SDS011;4133;48.752;9.088;2023-10-09T12:58:58;3.80;;;2.28;;
8183;SDS011;4133;48.752;9.088;2023-10-09T13:01:25;2.70;;;2.25;;
8183;SDS011;4133;48.752;9.088;2023-10-09T13:03:57;4.43;;;2.40;;
8183;SDS011;4133;48.752;9.088;2023-10-09T13:06:24;4.22;;;2.63;;
8183;SDS011;4133;48.752;9.088;2023-10-09T13:08:50;3.50;;;2.35;;
8183;SDS011;4133;48.752;9.088;2023-10-09T13:11:17;3.60;;;2.35;;
8183;SDS011;4133;48.752;9.088;2023-10-09T13:13:43;4.68;;;3.08;;
8183;SDS011;4133;48.752;9.088;2023-10-09T13:18:45;5.20;;;2.50;;
8183;SDS011;4133;48.752;9.088;2023-10-09T13:23:47;6.10;;;2.72;;
8183;SDS011;4133;48.752;9.088;2023-10-09T13:26:15;6.20;;;2.97;;
8183;SDS011;4133;48.752;9.088;2023-10-09T13:28:48;4.55;;;2.78;;
8183;SDS011;4133;48.752;9.088;2023-10-09T13:31:14;3.92;;;2.88;;
8183;SDS011;4133;48.752;9.088;2023-10-09T13:33:41;3.83;;;2.53;;
8183;SDS011;4133;48.752;9.088;2023-10-09T13:36:08;4.38;;;3.10;;
8183;SDS011;4133;48.752;9.088;2023-10-09T13:38:42;4.18;;;2.60;;
8183;SDS011;4133;48.752;9.088;2023-10-09T13:41:08;4.50;;;2.90;;
8183;SDS011;4133;48.752;9.088;2023-10-09T13:43:41;3.92;;;2.90;;
8183;SDS011;4133;48.752;9.088;2023-10-09T13:46:08;5.97;;;3.25;;
8183;SDS011;4133;48.752;9.088;2023-10-09T13:48:34;5.55;;;2.85;;
8183;SDS011;4133;48.752;9.088;2023-10-09T13:51:12;4.10;;;2.65;;
8183;SDS011;4133;48.752;9.088;2023-10-09T13:53:41;4.93;;;2.63;;
8183;SDS011;4133;48.752;9.088;2023-10-09T13:56:11;6.88;;;2.45;;
8183;SDS011;4133;48.752;9.088;2023-10-09T13:58:40;4.20;;;2.60;;
8183;SDS011;4133;48.752;9.088;2023-10-09T14:01:08;7.57;;;2.70;;
8183;SDS011;4133;48.752;9.088;2023-10-09T14:03:34;5.25;;;2.60;;
8183;SDS011;4133;48.752;9.088;2023-10-09T14:06:00;5.20;;;2.85;;
8183;SDS011;4133;48.752;9.088;2023-10-09T14:08:35;3.28;;;2.70;;
8183;SDS011;4133;48.752;9.088;2023-10-09T14:11:07;4.03;;;2.53;;
8183;SDS011;4133;48.752;9.088;2023-10-09T14:13:38;5.32;;;2.92;;
8183;SDS011;4133;48.752;9.088;2023-10-09T14:16:04;3.95;;;2.88;;
8183;SDS011;4133;48.752;9.088;2023-10-09T14:18:31;4.55;;;2.88;;
8183;SDS011;4133;48.752;9.088;2023-10-09T14:21:00;5.32;;;3.25;;
8183;SDS011;4133;48.752;9.088;2023-10-09T14:23:29;3.97;;;2.90;;
8183;SDS011;4133;48.752;9.088;2023-10-09T14:25:59;5.28;;;2.58;;
8183;SDS011;4133;48.752;9.088;2023-10-09T14:28:27;4.65;;;2.65;;
8183;SDS011;4133;48.752;9.088;2023-10-09T14:30:54;3.58;;;2.53;;
8183;SDS011;4133;48.752;9.088;2023-10-09T14:33:24;3.15;;;2.30;;
8183;SDS011;4133;48.752;9.088;2023-10-09T14:35:54;5.03;;;2.70;;
8183;SDS011;4133;48.752;9.088;2023-10-09T14:38:20;5.47;;;2.70;;
8183;SDS011;4133;48.752;9.088;2023-10-09T14:40:52;4.13;;;2.72;;
8183;SDS011;4133;48.752;9.088;2023-10-09T14:43:24;3.88;;;2.70;;
8183;SDS011;4133;48.752;9.088;2023-10-09T14:45:54;3.42;;;2.70;;
8183;SDS011;4133;48.752;9.088;2023-10-09T14:48:20;3.78;;;2.55;;
8183;SDS011;4133;48.752;9.088;2023-10-09T14:50:53;5.53;;;2.90;;
8183;SDS011;4133;48.752;9.088;2023-10-09T14:53:20;3.42;;;2.65;;
8183;SDS011;4133;48.752;9.088;2023-10-09T14:55:53;4.15;;;2.90;;
8183;SDS011;4133;48.752;9.088;2023-10-09T14:58:19;4.80;;;3.00;;
8183;SDS011;4133;48.752;9.088;2023-10-09T15:00:45;4.90;;;2.80;;
8183;SDS011;4133;48.752;9.088;2023-10-09T15:03:14;5.15;;;2.72;;
8183;SDS011;4133;48.752;9.088;2023-10-09T15:05:41;3.80;;;2.58;;
8183;SDS011;4133;48.752;9.088;2023-10-09T15:08:07;3.83;;;2.65;;
8183;SDS011;4133;48.752;9.088;2023-10-09T15:10:46;4.13;;;2.30;;
8183;SDS011;4133;48.752;9.088;2023-10-09T15:13:16;6.10;;;2.70;;
8183;SDS011;4133;48.752;9.088;2023-10-09T15:15:43;4.57;;;2.50;;
8183;SDS011;4133;48.752;9.088;2023-10-09T15:18:09;5.18;;;3.17;;
8183;SDS011;4133;48.752;9.088;2023-10-09T15:20:39;4.65;;;2.65;;
8183;SDS011;4133;48.752;9.088;2023-10-09T15:23:05;5.97;;;3.20;;
8183;SDS011;4133;48.752;9.088;2023-10-09T15:25:31;4.13;;;3.15;;
8183;SDS011;4133;48.752;9.088;2023-10-09T15:27:59;4.57;;;2.83;;
8183;SDS011;4133;48.752;9.088;2023-10-09T15:30:25;3.38;;;2.42;;
8183;SDS011;4133;48.752;9.088;2023-10-09T15:32:51;5.50;;;2.90;;
8183;SDS011;4133;48.752;9.088;2023-10-09T15:35:17;6.43;;;3.05;;
8183;SDS011;4133;48.752;9.088;2023-10-09T15:37:44;4.68;;;2.72;;
8183;SDS011;4133;48.752;9.088;2023-10-09T15:40:11;4.95;;;2.88;;
8183;SDS011;4133;48.752;9.088;2023-10-09T15:42:42;4.47;;;2.63;;
8183;SDS011;4133;48.752;9.088;2023-10-09T15:45:08;4.45;;;2.67;;
8183;SDS011;4133;48.752;9.088;2023-10-09T15:47:34;5.63;;;2.63;;
8183;SDS011;4133;48.752;9.088;2023-10-09T15:50:02;5.22;;;2.78;;
8183;SDS011;4133;48.752;9.088;2023-10-09T15:52:28;4.30;;;2.50;;
8183;SDS011;4133;48.752;9.088;2023-10-09T15:54:54;4.70;;;2.60;;
8183;SDS011;4133;48.752;9.088;2023-10-09T15:57:21;5.47;;;2.35;;
8183;SDS011;4133;48.752;9.088;2023-10-09T15:59:47;4.03;;;2.20;;
8183;SDS011;4133;48.752;9.088;2023-10-09T16:02:15;4.00;;;2.70;;
8183;SDS011;4133;48.752;9.088;2023-10-09T16:04:42;3.55;;;2.50;;
8183;SDS011;4133;48.752;9.088;2023-10-09T16:07:09;4.78;;;2.60;;
8183;SDS011;4133;48.752;9.088;2023-10-09T16:09:36;4.30;;;2.40;;
8183;SDS011;4133;48.752;9.088;2023-10-09T16:12:07;5.18;;;2.70;;
8183;SDS011;4133;48.752;9.088;2023-10-09T16:14:35;3.13;;;2.63;;
8183;SDS011;4133;48.752;9.088;2023-10-09T16:17:01;3.67;;;2.50;;